createdAt,value
2018-06-16T00:00:15.002Z,22.37
2018-06-16T00:01:20.469Z,23.30
2018-06-16T00:02:25.997Z,21.70
2018-06-16T00:03:31.436Z,22.73
2018-06-16T00:04:36.858Z,22.33
2018-06-16T00:05:42.337Z,19.80
2018-06-16T00:06:47.774Z,21.80
2018-06-16T00:07:53.430Z,22.20
2018-06-16T00:08:58.880Z,22.60
2018-06-16T00:10:04.374Z,21.30
2018-06-16T00:11:10.024Z,23.13
2018-06-16T00:12:15.444Z,21.77
2018-06-16T00:13:20.973Z,22.87
2018-06-16T00:14:26.590Z,22.37
2018-06-16T00:15:32.114Z,21.63
2018-06-16T00:16:37.593Z,23.13
2018-06-16T00:17:43.036Z,22.37
2018-06-16T00:18:48.462Z,22.40
2018-06-16T00:19:53.931Z,22.10
2018-06-16T00:20:59.349Z,22.47
2018-06-16T00:22:04.970Z,22.97
2018-06-16T00:23:10.422Z,23.37
2018-06-16T00:24:15.948Z,24.57
2018-06-16T00:25:21.492Z,22.60
2018-06-16T00:26:26.909Z,23.20
2018-06-16T00:27:32.476Z,22.80
2018-06-16T00:28:38.070Z,24.47
2018-06-16T00:29:43.474Z,23.07
2018-06-16T00:30:48.876Z,23.13
2018-06-16T00:31:54.304Z,22.17
2018-06-16T00:32:59.873Z,20.97
2018-06-16T00:34:05.367Z,23.80
2018-06-16T00:35:10.833Z,23.13
2018-06-16T00:36:16.244Z,21.30
2018-06-16T00:37:22.196Z,23.97
2018-06-16T00:38:27.632Z,24.47
2018-06-16T00:39:33.324Z,25.17
2018-06-16T00:40:38.763Z,24.57
2018-06-16T00:41:44.346Z,24.03
2018-06-16T00:42:49.777Z,24.03
2018-06-16T00:43:55.202Z,25.23
2018-06-16T00:45:00.628Z,22.80
2018-06-16T00:46:06.088Z,25.20
2018-06-16T00:47:11.505Z,24.00
2018-06-16T00:48:16.977Z,23.93
2018-06-16T00:49:22.525Z,24.23
2018-06-16T00:50:27.989Z,23.90
2018-06-16T00:51:33.420Z,24.27
2018-06-16T00:52:39.008Z,22.50
2018-06-16T00:53:44.653Z,22.60
2018-06-16T00:54:50.061Z,22.90
2018-06-16T00:55:55.469Z,23.33
2018-06-16T00:57:17.757Z,22.77
2018-06-16T00:58:23.191Z,23.43
2018-06-16T00:59:28.650Z,22.90
2018-06-16T01:00:34.090Z,22.97
2018-06-16T01:01:39.490Z,22.93
2018-06-16T01:02:44.926Z,22.03
2018-06-16T01:03:50.349Z,22.83
2018-06-16T01:04:55.955Z,23.20
2018-06-16T01:06:01.361Z,23.97
2018-06-16T01:07:07.589Z,23.57
2018-06-16T01:08:12.957Z,23.87
2018-06-16T01:09:18.385Z,24.47
2018-06-16T01:10:23.812Z,23.30
2018-06-16T01:11:29.224Z,25.17
2018-06-16T01:12:34.626Z,22.17
2018-06-16T01:13:40.096Z,23.73
2018-06-16T01:14:45.522Z,23.30
2018-06-16T01:15:50.917Z,24.03
2018-06-16T01:16:56.433Z,24.53
2018-06-16T01:18:01.847Z,24.63
2018-06-16T01:19:07.392Z,24.93
2018-06-16T01:20:12.813Z,25.13
2018-06-16T01:21:18.239Z,24.40
2018-06-16T01:22:23.648Z,23.27
2018-06-16T01:23:29.074Z,24.40
2018-06-16T01:24:34.695Z,25.00
2018-06-16T01:25:40.105Z,24.50
2018-06-16T01:26:45.706Z,24.93
2018-06-16T01:27:51.121Z,25.87
2018-06-16T01:28:56.546Z,23.43
2018-06-16T01:30:02.030Z,23.73
2018-06-16T01:31:07.522Z,25.23
2018-06-16T01:32:12.914Z,23.83
2018-06-16T01:33:18.392Z,24.20
2018-06-16T01:34:23.791Z,25.90
2018-06-16T01:35:29.400Z,26.93
2018-06-16T01:36:34.824Z,24.93
2018-06-16T01:37:40.249Z,24.40
2018-06-16T01:38:45.652Z,24.77
2018-06-16T01:39:51.058Z,22.90
2018-06-16T01:40:56.687Z,24.07
2018-06-16T01:42:02.122Z,24.70
2018-06-16T01:43:07.577Z,23.77
2018-06-16T01:44:13.025Z,23.60
2018-06-16T01:45:18.428Z,25.87
2018-06-16T01:46:24.100Z,23.97
2018-06-16T01:47:29.554Z,25.10
2018-06-16T01:48:34.960Z,25.67
2018-06-16T01:49:40.348Z,24.20
2018-06-16T01:50:45.752Z,24.13
2018-06-16T01:51:51.393Z,25.60
2018-06-16T01:52:56.809Z,24.07
2018-06-16T01:54:02.256Z,25.37
2018-06-16T01:55:07.679Z,24.40
2018-06-16T01:56:13.106Z,23.70
2018-06-16T01:57:18.569Z,25.17
2018-06-16T01:58:23.981Z,24.00
2018-06-16T01:59:29.409Z,24.90
2018-06-16T02:00:34.846Z,24.73
2018-06-16T02:01:40.130Z,25.47
2018-06-16T02:02:45.580Z,23.60
2018-06-16T02:03:51.004Z,24.73
2018-06-16T02:04:56.603Z,26.43
2018-06-16T02:06:02.062Z,22.33
2018-06-16T02:07:07.526Z,24.27
2018-06-16T02:08:12.961Z,24.23
2018-06-16T02:09:18.465Z,25.00
2018-06-16T02:10:23.931Z,24.70
2018-06-16T02:11:29.322Z,24.47
2018-06-16T02:12:34.757Z,25.73
2018-06-16T02:13:40.156Z,26.27
2018-06-16T02:14:45.664Z,25.03
2018-06-16T02:15:51.279Z,23.90
2018-06-16T02:16:56.697Z,24.63
2018-06-16T02:18:02.118Z,27.70
2018-06-16T02:19:07.548Z,26.50
2018-06-16T02:20:12.985Z,26.00
2018-06-16T02:21:18.466Z,26.07
2018-06-16T02:22:23.866Z,26.13
2018-06-16T02:23:29.273Z,27.27
2018-06-16T02:24:34.659Z,26.90
2018-06-16T02:25:40.102Z,26.50
2018-06-16T02:26:45.551Z,25.80
2018-06-16T02:27:50.936Z,25.50
2018-06-16T02:28:56.328Z,25.63
2018-06-16T02:30:01.752Z,27.90
2018-06-16T02:31:07.167Z,26.60
2018-06-16T02:32:12.617Z,26.57
2018-06-16T02:33:18.098Z,26.53
2018-06-16T02:34:23.544Z,27.30
2018-06-16T02:35:28.976Z,27.27
2018-06-16T02:36:34.399Z,27.07
2018-06-16T02:37:39.868Z,26.50
2018-06-16T02:38:45.366Z,27.60
2018-06-16T02:39:50.782Z,28.00
2018-06-16T02:40:56.209Z,25.90
2018-06-16T02:42:01.626Z,26.43
2018-06-16T02:43:07.057Z,26.80
2018-06-16T02:44:12.444Z,27.07
2018-06-16T02:45:17.862Z,24.30
2018-06-16T02:46:23.397Z,24.83
2018-06-16T02:47:28.703Z,25.13
2018-06-16T02:48:34.014Z,24.43
2018-06-16T02:49:39.430Z,25.60
2018-06-16T02:50:44.874Z,25.77
2018-06-16T02:51:50.486Z,24.90
2018-06-16T02:52:55.931Z,25.40
2018-06-16T02:54:01.367Z,24.20
2018-06-16T02:55:07.021Z,27.23
2018-06-16T02:56:11.388Z,25.50
2018-06-16T02:57:16.709Z,27.40
2018-06-16T02:58:22.118Z,26.67
2018-06-16T02:59:27.533Z,25.57
2018-06-16T03:00:32.949Z,26.60
2018-06-16T03:01:38.354Z,25.90
2018-06-16T03:02:43.826Z,27.67
2018-06-16T03:03:49.257Z,25.87
2018-06-16T03:04:54.722Z,24.83
2018-06-16T03:06:00.125Z,26.90
2018-06-16T03:07:05.598Z,24.90
2018-06-16T03:08:10.993Z,23.90
2018-06-16T03:09:16.582Z,25.57
2018-06-16T03:10:21.986Z,25.23
2018-06-16T03:11:27.535Z,25.00
2018-06-16T03:12:32.945Z,24.20
2018-06-16T03:13:38.337Z,25.20
2018-06-16T03:14:43.924Z,26.47
2018-06-16T03:15:49.351Z,28.50
2018-06-16T03:16:54.882Z,27.43
2018-06-16T03:18:00.286Z,25.40
2018-06-16T03:19:05.708Z,28.37
2018-06-16T03:20:11.145Z,26.20
2018-06-16T03:21:16.580Z,27.33
2018-06-16T03:22:22.005Z,26.43
2018-06-16T03:23:27.427Z,25.80
2018-06-16T03:24:32.886Z,27.00
2018-06-16T03:25:38.347Z,25.53
2018-06-16T03:26:43.765Z,26.07
2018-06-16T03:27:49.218Z,25.07
2018-06-16T03:28:54.681Z,25.23
2018-06-16T03:30:00.189Z,25.83
2018-06-16T03:31:05.709Z,25.50
2018-06-16T03:32:11.114Z,25.37
2018-06-16T03:33:16.792Z,24.63
2018-06-16T03:34:22.254Z,24.17
2018-06-16T03:35:27.649Z,25.50
2018-06-16T03:36:33.097Z,26.20
2018-06-16T03:37:38.517Z,25.63
2018-06-16T03:38:43.929Z,26.30
2018-06-16T03:39:49.372Z,26.67
2018-06-16T03:40:55.013Z,24.40
2018-06-16T03:42:00.417Z,24.50
2018-06-16T03:43:05.941Z,26.33
2018-06-16T03:44:11.411Z,27.30
2018-06-16T03:45:16.843Z,24.50
2018-06-16T03:46:22.293Z,26.43
2018-06-16T03:47:27.970Z,24.63
2018-06-16T03:48:33.372Z,26.00
2018-06-16T03:49:39.013Z,26.60
2018-06-16T03:50:44.465Z,24.53
2018-06-16T03:51:49.932Z,25.27
2018-06-16T03:52:55.490Z,24.33
2018-06-16T03:54:00.913Z,27.00
2018-06-16T03:55:06.355Z,24.27
2018-06-16T03:56:11.781Z,22.90
2018-06-16T03:57:17.206Z,23.93
2018-06-16T03:58:22.644Z,24.83
2018-06-16T03:59:28.070Z,25.10
2018-06-16T04:00:33.453Z,24.33
2018-06-16T04:01:38.877Z,26.23
2018-06-16T04:02:44.289Z,23.93
2018-06-16T04:03:49.740Z,24.70
2018-06-16T04:04:55.190Z,24.70
2018-06-16T04:06:00.798Z,24.23
2018-06-16T04:07:06.287Z,24.63
2018-06-16T04:08:12.193Z,23.40
2018-06-16T04:09:17.618Z,24.53
2018-06-16T04:10:23.046Z,25.53
2018-06-16T04:11:28.466Z,23.77
2018-06-16T04:12:33.881Z,24.97
2018-06-16T04:13:39.295Z,24.30
2018-06-16T04:14:44.699Z,23.27
2018-06-16T04:15:50.111Z,24.60
2018-06-16T04:16:55.538Z,24.87
2018-06-16T04:18:01.002Z,24.97
2018-06-16T04:19:06.445Z,25.50
2018-06-16T04:20:11.858Z,25.03
2018-06-16T04:21:17.642Z,23.93
2018-06-16T04:22:23.035Z,23.67
2018-06-16T04:23:28.453Z,24.10
2018-06-16T04:24:33.609Z,23.87
2018-06-16T04:25:38.925Z,24.43
2018-06-16T04:26:44.184Z,25.20
2018-06-16T04:27:49.561Z,26.03
2018-06-16T04:28:54.990Z,24.53
2018-06-16T04:30:00.389Z,23.27
2018-06-16T04:31:06.728Z,24.40
2018-06-16T04:32:12.089Z,24.23
2018-06-16T04:33:18.699Z,24.00
2018-06-16T04:34:24.085Z,22.93
2018-06-16T04:35:29.489Z,22.60
2018-06-16T04:36:34.885Z,23.70
2018-06-16T04:37:41.182Z,22.40
2018-06-16T04:38:46.605Z,22.97
2018-06-16T04:39:52.048Z,24.03
2018-06-16T04:40:57.464Z,23.50
2018-06-16T04:42:02.888Z,23.67
2018-06-16T04:43:08.811Z,24.20
2018-06-16T04:44:14.217Z,21.70
2018-06-16T04:45:19.697Z,23.17
2018-06-16T04:46:25.101Z,21.50
2018-06-16T04:47:30.509Z,21.97
2018-06-16T04:48:36.088Z,22.43
2018-06-16T04:49:41.515Z,22.73
2018-06-16T04:50:48.022Z,21.20
2018-06-16T04:51:53.606Z,22.40
2018-06-16T04:52:58.988Z,22.10
2018-06-16T04:54:04.513Z,21.37
2018-06-16T04:55:10.084Z,21.07
2018-06-16T04:56:15.530Z,22.53
2018-06-16T04:57:20.959Z,21.63
2018-06-16T04:58:26.346Z,21.60
2018-06-16T04:59:31.812Z,21.27
2018-06-16T05:00:37.277Z,23.10
2018-06-16T05:01:42.669Z,23.10
2018-06-16T05:02:48.155Z,21.27
2018-06-16T05:03:53.555Z,22.43
2018-06-16T05:04:58.961Z,22.37
2018-06-16T05:06:04.419Z,20.87
2018-06-16T05:07:09.858Z,23.40
2018-06-16T05:08:15.376Z,22.33
2018-06-16T05:09:20.782Z,24.57
2018-06-16T05:10:26.228Z,21.87
2018-06-16T05:11:31.662Z,22.90
2018-06-16T05:12:37.170Z,22.20
2018-06-16T05:13:42.586Z,24.03
2018-06-16T05:14:48.507Z,24.23
2018-06-16T05:15:53.975Z,23.40
2018-06-16T05:16:59.470Z,22.93
2018-06-16T05:18:05.217Z,23.07
2018-06-16T05:19:10.637Z,24.30
2018-06-16T05:20:16.058Z,21.63
2018-06-16T05:21:21.502Z,23.17
2018-06-16T05:22:26.926Z,21.20
2018-06-16T05:23:32.321Z,22.93
2018-06-16T05:24:37.774Z,22.53
2018-06-16T05:25:43.450Z,24.23
2018-06-16T05:26:48.937Z,23.80
2018-06-16T05:27:54.502Z,23.90
2018-06-16T05:28:59.951Z,23.67
2018-06-16T05:30:05.485Z,23.10
2018-06-16T05:31:11.022Z,25.30
2018-06-16T05:32:16.613Z,26.53
2018-06-16T05:33:22.135Z,24.63
2018-06-16T05:35:30.534Z,24.63
2018-06-16T05:36:36.019Z,24.53
2018-06-16T05:37:41.637Z,26.80
2018-06-16T05:38:47.301Z,24.73
2018-06-16T05:39:52.790Z,24.87
2018-06-16T05:40:58.238Z,25.60
2018-06-16T05:42:03.670Z,25.30
2018-06-16T05:43:09.146Z,25.53
2018-06-16T05:44:14.574Z,24.07
2018-06-16T05:45:20.689Z,24.23
2018-06-16T05:46:26.177Z,26.70
2018-06-16T05:47:31.584Z,25.33
2018-06-16T05:48:37.238Z,23.03
2018-06-16T05:49:43.221Z,24.40
2018-06-16T05:50:48.765Z,24.63
2018-06-16T05:51:55.457Z,26.30
2018-06-16T05:53:00.914Z,26.80
2018-06-16T05:54:06.560Z,25.80
2018-06-16T05:55:12.101Z,23.33
2018-06-16T05:56:17.652Z,24.77
2018-06-16T05:57:23.153Z,23.57
2018-06-16T05:58:28.777Z,23.37
2018-06-16T05:59:33.966Z,23.90
2018-06-16T06:00:39.935Z,24.30
2018-06-16T06:01:45.702Z,23.80
2018-06-16T06:02:51.341Z,24.23
2018-06-16T06:03:56.950Z,23.17
2018-06-16T06:05:02.465Z,24.90
2018-06-16T06:06:08.017Z,23.27
2018-06-16T06:07:13.721Z,25.30
2018-06-16T06:08:19.234Z,25.07
2018-06-16T06:09:24.893Z,24.80
2018-06-16T06:10:30.656Z,23.27
2018-06-16T06:11:36.173Z,23.53
2018-06-16T06:12:42.069Z,23.20
2018-06-16T06:13:47.562Z,25.57
2018-06-16T06:14:53.160Z,22.77
2018-06-16T06:15:58.861Z,24.83
2018-06-16T06:17:04.309Z,21.90
2018-06-16T06:18:09.745Z,23.17
2018-06-16T06:19:15.281Z,22.70
2018-06-16T06:20:20.769Z,22.87
2018-06-16T06:21:26.278Z,20.10
2018-06-16T06:22:31.654Z,21.33
2018-06-16T06:23:37.090Z,20.80
2018-06-16T06:24:42.656Z,22.00
2018-06-16T06:25:48.222Z,22.00
2018-06-16T06:26:53.790Z,22.90
2018-06-16T06:28:00.221Z,20.27
2018-06-16T06:29:05.605Z,21.77
2018-06-16T06:30:11.074Z,23.00
2018-06-16T06:31:16.746Z,21.53
2018-06-16T06:32:22.401Z,20.80
2018-06-16T06:33:27.956Z,22.23
2018-06-16T06:34:33.449Z,23.07
2018-06-16T06:35:38.877Z,19.80
2018-06-16T06:36:44.542Z,22.03
2018-06-16T06:37:49.954Z,22.47
2018-06-16T06:38:55.419Z,21.60
2018-06-16T06:40:00.940Z,23.00
2018-06-16T06:41:06.386Z,20.97
2018-06-16T06:42:11.813Z,21.50
2018-06-16T06:43:17.413Z,21.70
2018-06-16T06:44:23.056Z,21.23
2018-06-16T06:45:28.589Z,22.33
2018-06-16T06:46:34.157Z,21.93
2018-06-16T06:47:39.549Z,19.83
2018-06-16T06:48:45.123Z,19.97
2018-06-16T06:49:50.548Z,21.13
2018-06-16T06:50:56.172Z,21.27
2018-06-16T06:52:01.646Z,19.80
2018-06-16T06:53:07.105Z,20.00
2018-06-16T06:54:12.734Z,20.87
2018-06-16T06:55:18.293Z,21.10
2018-06-16T06:56:23.900Z,21.60
2018-06-16T06:57:29.331Z,20.20
2018-06-16T06:58:34.829Z,20.80
2018-06-16T06:59:40.849Z,20.37
2018-06-16T07:00:46.277Z,19.90
2018-06-16T07:01:51.727Z,19.40
2018-06-16T07:02:57.340Z,19.57
2018-06-16T07:04:02.842Z,19.73
2018-06-16T07:05:08.246Z,19.87
2018-06-16T07:06:14.466Z,19.20
2018-06-16T07:07:19.888Z,19.30
2018-06-16T07:08:25.357Z,20.23
2018-06-16T07:09:30.872Z,20.60
2018-06-16T07:10:36.511Z,19.90
2018-06-16T07:11:41.916Z,19.20
2018-06-16T07:12:47.363Z,20.70
2018-06-16T07:13:53.409Z,19.77
2018-06-16T07:14:58.762Z,19.67
2018-06-16T07:16:04.798Z,17.60
2018-06-16T07:17:10.228Z,18.37
2018-06-16T07:18:15.693Z,18.87
2018-06-16T07:19:21.329Z,18.83
2018-06-16T07:20:26.934Z,18.20
2018-06-16T07:21:32.394Z,17.30
2018-06-16T07:22:38.154Z,17.10
2018-06-16T07:23:43.587Z,16.57
2018-06-16T07:24:49.094Z,17.00
2018-06-16T07:25:54.502Z,16.47
2018-06-16T07:26:59.997Z,17.97
2018-06-16T07:28:05.731Z,17.40
2018-06-16T07:29:11.156Z,16.87
2018-06-16T07:30:16.600Z,16.13
2018-06-16T07:31:22.001Z,16.80
2018-06-16T07:32:27.428Z,17.73
2018-06-16T07:33:32.873Z,17.50
2018-06-16T07:34:38.287Z,16.10
2018-06-16T07:35:43.740Z,16.53
2018-06-16T07:36:49.166Z,15.80
2018-06-16T07:37:54.693Z,17.43
2018-06-16T07:39:00.138Z,16.90
2018-06-16T07:40:05.679Z,14.87
2018-06-16T07:41:11.243Z,14.70
2018-06-16T07:42:16.692Z,15.40
2018-06-16T07:43:22.324Z,14.83
2018-06-16T07:44:27.776Z,14.97
2018-06-16T07:45:33.188Z,14.13
2018-06-16T07:46:38.997Z,14.77
2018-06-16T07:47:44.839Z,13.83
2018-06-16T07:48:51.133Z,14.27
2018-06-16T07:49:57.317Z,13.17
2018-06-16T07:51:02.868Z,12.83
2018-06-16T07:52:08.342Z,13.93
2018-06-16T07:53:13.801Z,14.90
2018-06-16T07:54:19.582Z,13.80
2018-06-16T07:55:25.038Z,13.60
2018-06-16T07:56:30.990Z,13.87
2018-06-16T07:57:37.139Z,14.23
2018-06-16T07:58:45.810Z,13.83
2018-06-16T07:59:51.301Z,14.37
2018-06-16T08:00:57.700Z,14.90
2018-06-16T08:02:03.110Z,14.23
2018-06-16T08:03:08.884Z,14.00
2018-06-16T08:04:14.237Z,13.67
2018-06-16T08:05:20.384Z,14.10
2018-06-16T08:06:26.070Z,13.93
2018-06-16T08:07:31.485Z,13.83
2018-06-16T08:08:37.787Z,13.00
2018-06-16T08:09:43.227Z,13.93
2018-06-16T08:10:49.337Z,14.17
2018-06-16T08:11:55.019Z,15.40
2018-06-16T08:13:00.597Z,15.00
2018-06-16T08:14:06.149Z,13.47
2018-06-16T08:15:11.585Z,14.60
2018-06-16T08:16:17.009Z,14.83
2018-06-16T08:17:22.458Z,14.60
2018-06-16T08:18:28.151Z,13.57
2018-06-16T08:19:33.568Z,14.77
2018-06-16T08:20:38.989Z,13.20
2018-06-16T08:21:44.580Z,14.20
2018-06-16T08:22:50.062Z,15.57
2018-06-16T08:23:56.720Z,14.33
2018-06-16T08:25:01.885Z,13.83
2018-06-16T08:26:08.319Z,15.63
2018-06-16T08:27:13.773Z,16.30
2018-06-16T08:28:19.258Z,16.07
2018-06-16T08:29:25.162Z,17.20
2018-06-16T08:30:30.637Z,17.20
2018-06-16T08:31:36.118Z,16.87
2018-06-16T08:32:42.394Z,17.60
2018-06-16T08:33:47.841Z,18.07
2018-06-16T08:34:53.312Z,17.70
2018-06-16T08:35:59.074Z,16.60
2018-06-16T08:37:04.698Z,17.80
2018-06-16T08:38:10.533Z,19.10
2018-06-16T08:39:16.356Z,17.67
2018-06-16T08:40:21.956Z,17.33
2018-06-16T08:41:27.441Z,18.23
2018-06-16T08:42:32.911Z,18.17
2018-06-16T08:43:38.497Z,18.97
2018-06-16T08:44:44.058Z,19.30
2018-06-16T08:45:49.660Z,20.07
2018-06-16T08:46:55.150Z,18.97
2018-06-16T08:48:01.184Z,19.03
2018-06-16T08:49:06.949Z,20.10
2018-06-16T08:50:13.114Z,19.30
2018-06-16T08:51:19.713Z,20.57
2018-06-16T08:52:25.136Z,21.80
2018-06-16T08:53:30.549Z,20.83
2018-06-16T08:54:36.033Z,21.07
2018-06-16T08:55:41.509Z,20.63
2018-06-16T08:56:46.956Z,21.80
2018-06-16T08:57:52.394Z,19.63
2018-06-16T08:58:58.861Z,21.07
2018-06-16T09:00:04.424Z,21.37
2018-06-16T09:01:09.865Z,22.20
2018-06-16T09:02:15.331Z,21.97
2018-06-16T09:03:21.826Z,20.83
2018-06-16T09:04:27.270Z,21.57
2018-06-16T09:05:33.048Z,23.30
2018-06-16T09:06:38.541Z,25.57
2018-06-16T09:07:44.808Z,23.37
2018-06-16T09:08:50.377Z,22.70
2018-06-16T09:09:55.571Z,22.23
2018-06-16T09:11:01.061Z,22.07
2018-06-16T09:12:06.534Z,21.67
2018-06-16T09:13:12.066Z,22.93
2018-06-16T09:14:17.622Z,22.50
2018-06-16T09:15:23.206Z,23.33
2018-06-16T09:16:29.513Z,22.10
2018-06-16T09:17:36.170Z,22.10
2018-06-16T09:18:41.584Z,23.67
2018-06-16T09:19:48.139Z,21.90
2018-06-16T09:20:53.799Z,21.63
2018-06-16T09:21:59.858Z,21.53
2018-06-16T09:23:05.120Z,24.03
2018-06-16T09:24:11.125Z,23.47
2018-06-16T09:25:16.678Z,22.93
2018-06-16T09:26:22.298Z,23.90
2018-06-16T09:27:27.969Z,21.40
2018-06-16T09:28:33.217Z,29.00
2018-06-16T09:29:38.636Z,23.07
2018-06-16T09:30:44.438Z,23.40
2018-06-16T09:31:50.043Z,25.73
2018-06-16T09:32:55.525Z,24.10
2018-06-16T09:34:01.049Z,24.90
2018-06-16T09:35:06.568Z,24.37
2018-06-16T09:36:12.280Z,23.23
2018-06-16T09:37:18.046Z,23.53
2018-06-16T09:38:23.576Z,26.23
2018-06-16T09:39:29.071Z,22.73
2018-06-16T09:40:34.554Z,22.87
2018-06-16T09:41:41.092Z,25.73
2018-06-16T09:42:46.753Z,24.10
2018-06-16T09:43:55.090Z,25.60
2018-06-16T09:45:00.374Z,23.23
2018-06-16T09:46:06.585Z,24.30
2018-06-16T09:47:12.095Z,24.57
2018-06-16T09:48:18.147Z,24.40
2018-06-16T09:49:23.681Z,25.50
2018-06-16T09:50:29.136Z,24.10
2018-06-16T09:51:34.661Z,24.83
2018-06-16T09:52:40.091Z,25.23
2018-06-16T09:53:45.549Z,25.03
2018-06-16T09:54:51.049Z,25.60
2018-06-16T09:55:56.481Z,23.30
2018-06-16T09:57:01.938Z,24.30
2018-06-16T09:58:07.141Z,23.90
2018-06-16T09:59:12.608Z,25.50
2018-06-16T10:00:24.886Z,22.97
2018-06-16T10:01:30.334Z,23.20
2018-06-16T10:02:35.480Z,22.77
2018-06-16T10:03:40.901Z,22.83
2018-06-16T10:04:46.505Z,24.50
2018-06-16T10:05:51.931Z,24.00
2018-06-16T10:06:57.353Z,24.50
2018-06-16T10:08:02.781Z,23.13
2018-06-16T10:09:09.442Z,23.40
2018-06-16T10:10:15.660Z,24.60
2018-06-16T10:11:21.074Z,25.17
2018-06-16T10:12:26.606Z,22.70
2018-06-16T10:13:32.017Z,23.90
2018-06-16T10:14:37.428Z,24.30
2018-06-16T10:15:42.771Z,22.37
2018-06-16T10:16:48.085Z,22.10
2018-06-16T10:17:53.533Z,21.47
2018-06-16T10:18:59.101Z,23.90
2018-06-16T10:20:04.599Z,23.57
2018-06-16T10:21:10.279Z,23.10
2018-06-16T10:22:15.662Z,24.90
2018-06-16T10:23:21.078Z,23.17
2018-06-16T10:24:26.476Z,23.00
2018-06-16T10:25:31.996Z,22.47
2018-06-16T10:26:37.471Z,21.33
2018-06-16T10:27:43.194Z,21.00
2018-06-16T10:28:48.673Z,21.57
2018-06-16T10:29:54.272Z,20.27
2018-06-16T10:30:59.681Z,20.10
2018-06-16T10:32:05.117Z,21.00
2018-06-16T10:33:10.627Z,22.20
2018-06-16T10:34:16.074Z,21.30
2018-06-16T10:35:21.495Z,23.00
2018-06-16T10:36:26.956Z,21.83
2018-06-16T10:37:32.361Z,23.20
2018-06-16T10:38:37.826Z,20.33
2018-06-16T10:39:43.236Z,20.50
2018-06-16T10:40:48.710Z,19.60
2018-06-16T10:41:54.124Z,19.60
2018-06-16T10:42:59.543Z,20.90
2018-06-16T10:44:04.978Z,18.97
2018-06-16T10:45:10.558Z,20.53
2018-06-16T10:46:16.010Z,19.70
2018-06-16T10:47:21.208Z,19.17
2018-06-16T10:48:26.661Z,19.30
2018-06-16T10:49:32.084Z,21.30
2018-06-16T10:50:37.540Z,18.43
2018-06-16T10:51:43.035Z,20.07
2018-06-16T10:52:48.497Z,18.87
2018-06-16T10:53:53.920Z,18.27
2018-06-16T10:54:59.486Z,17.80
2018-06-16T10:56:05.138Z,16.60
2018-06-16T10:57:10.577Z,15.90
2018-06-16T10:58:16.003Z,18.07
2018-06-16T10:59:21.413Z,16.77
2018-06-16T11:00:26.984Z,17.63
2018-06-16T11:01:32.640Z,16.10
2018-06-16T11:02:38.053Z,16.00
2018-06-16T11:03:43.442Z,16.20
2018-06-16T11:04:48.865Z,14.07
2018-06-16T11:05:54.320Z,12.87
2018-06-16T11:06:59.802Z,13.67
2018-06-16T11:08:05.294Z,12.23
2018-06-16T11:09:11.610Z,11.73
2018-06-16T11:10:17.025Z,10.93
2018-06-16T11:11:22.521Z,10.70
2018-06-16T11:12:28.048Z,9.60
2018-06-16T11:13:33.465Z,11.23
2018-06-16T11:14:39.146Z,11.57
2018-06-16T11:15:44.585Z,10.50
2018-06-16T11:16:50.030Z,12.80
2018-06-16T11:17:55.481Z,11.97
2018-06-16T11:19:00.950Z,13.10
2018-06-16T11:20:06.792Z,12.40
2018-06-16T11:21:12.245Z,12.30
2018-06-16T11:22:17.825Z,14.40
2018-06-16T11:23:23.226Z,13.20
2018-06-16T11:24:28.640Z,14.20
2018-06-16T11:25:34.100Z,13.83
2018-06-16T11:26:39.521Z,13.47
2018-06-16T11:27:45.059Z,12.83
2018-06-16T11:28:50.706Z,12.00
2018-06-16T11:29:56.601Z,14.10
2018-06-16T11:31:02.194Z,13.40
2018-06-16T11:32:07.630Z,13.80
2018-06-16T11:33:13.359Z,13.53
2018-06-16T11:34:18.897Z,12.90
2018-06-16T11:35:24.348Z,13.43
2018-06-16T11:36:30.073Z,13.33
2018-06-16T11:37:35.634Z,12.90
2018-06-16T11:38:41.104Z,13.37
2018-06-16T11:39:46.304Z,14.20
2018-06-16T11:40:51.810Z,13.83
2018-06-16T11:41:57.312Z,13.80
2018-06-16T11:43:02.894Z,13.27
2018-06-16T11:44:08.599Z,13.63
2018-06-16T11:45:14.024Z,13.97
2018-06-16T11:46:19.546Z,12.33
2018-06-16T11:47:25.118Z,13.03
2018-06-16T11:48:30.722Z,12.53
2018-06-16T11:49:36.185Z,12.70
2018-06-16T11:50:41.725Z,12.10
2018-06-16T11:51:47.272Z,10.93
2018-06-16T11:52:52.696Z,12.17
2018-06-16T11:53:58.146Z,12.30
2018-06-16T11:55:03.790Z,11.40
2018-06-16T11:56:09.648Z,11.97
2018-06-16T11:57:15.160Z,11.00
2018-06-16T11:58:20.589Z,11.17
2018-06-16T11:59:26.204Z,10.70
2018-06-16T12:00:31.754Z,9.93
2018-06-16T12:01:37.248Z,10.73
2018-06-16T12:02:42.689Z,10.00
2018-06-16T12:03:48.317Z,10.00
2018-06-16T12:04:53.780Z,8.67
2018-06-16T12:05:59.501Z,9.27
2018-06-16T12:07:05.069Z,7.90
2018-06-16T12:08:10.757Z,9.07
2018-06-16T12:09:16.585Z,7.70
2018-06-16T12:10:22.204Z,7.70
2018-06-16T12:11:27.841Z,7.33
2018-06-16T12:12:33.347Z,7.00
2018-06-16T12:13:38.828Z,7.07
2018-06-16T12:14:44.571Z,7.67
2018-06-16T12:15:50.200Z,7.67
2018-06-16T12:16:55.689Z,6.97
2018-06-16T12:18:01.222Z,6.37
2018-06-16T12:19:07.085Z,7.80
2018-06-16T12:20:12.539Z,6.83
2018-06-16T12:21:18.066Z,8.50
2018-06-16T12:22:23.605Z,6.83
2018-06-16T12:23:29.073Z,7.77
2018-06-16T12:24:34.752Z,8.17
2018-06-16T12:25:40.268Z,7.40
2018-06-16T12:26:45.725Z,6.90
2018-06-16T12:27:51.285Z,6.50
2018-06-16T12:28:56.810Z,6.33
2018-06-16T12:30:03.090Z,6.47
2018-06-16T12:31:08.639Z,6.67
2018-06-16T12:32:13.825Z,6.37
2018-06-16T12:33:19.301Z,5.70
2018-06-16T12:34:24.883Z,5.10
2018-06-16T12:35:30.353Z,6.00
2018-06-16T12:36:35.957Z,5.13
2018-06-16T12:37:41.586Z,4.90
2018-06-16T12:38:47.309Z,4.57
2018-06-16T12:39:52.775Z,4.43
2018-06-16T12:40:58.537Z,3.70
2018-06-16T12:42:04.049Z,4.23
2018-06-16T12:43:09.508Z,3.50
2018-06-16T12:44:15.007Z,4.30
2018-06-16T12:45:20.409Z,3.93
2018-06-16T12:46:26.388Z,3.60
2018-06-16T12:47:31.960Z,4.00
2018-06-16T12:48:37.427Z,3.73
2018-06-16T12:49:43.148Z,3.10
2018-06-16T12:50:48.570Z,3.40
2018-06-16T12:51:54.010Z,4.10
2018-06-16T12:52:59.454Z,3.90
2018-06-16T12:54:05.198Z,3.13
2018-06-16T12:55:10.828Z,3.43
2018-06-16T12:56:16.386Z,3.47
2018-06-16T12:57:21.771Z,3.50
2018-06-16T12:58:27.230Z,3.23
2018-06-16T12:59:32.909Z,3.23
2018-06-16T13:00:38.301Z,3.20
2018-06-16T13:01:43.907Z,3.23
2018-06-16T13:02:49.344Z,3.47
2018-06-16T13:03:54.871Z,3.20
2018-06-16T13:05:00.338Z,2.80
2018-06-16T13:06:05.985Z,3.10
2018-06-16T13:07:11.385Z,2.90
2018-06-16T13:08:16.978Z,3.33
2018-06-16T13:09:22.430Z,3.17
2018-06-16T13:10:27.867Z,3.20
2018-06-16T13:11:33.350Z,3.80
2018-06-16T13:12:38.930Z,3.53
2018-06-16T13:13:44.343Z,3.13
2018-06-16T13:14:49.785Z,3.73
2018-06-16T13:15:55.356Z,3.40
2018-06-16T13:17:00.982Z,4.10
2018-06-16T13:18:06.733Z,3.37
2018-06-16T13:19:12.311Z,3.60
2018-06-16T13:20:17.870Z,4.40
2018-06-16T13:21:23.350Z,3.73
2018-06-16T13:22:28.820Z,3.50
2018-06-16T13:23:34.421Z,4.13
2018-06-16T13:24:39.849Z,4.00
2018-06-16T13:25:45.385Z,3.67
2018-06-16T13:26:50.826Z,3.67
2018-06-16T13:27:56.274Z,4.30
2018-06-16T13:29:01.731Z,3.13
2018-06-16T13:30:07.234Z,3.47
2018-06-16T13:31:12.701Z,3.53
2018-06-16T13:32:18.334Z,3.90
2018-06-16T13:33:23.805Z,4.10
2018-06-16T13:34:29.304Z,3.57
2018-06-16T13:35:34.741Z,3.77
2018-06-16T13:36:40.245Z,3.50
2018-06-16T13:37:45.778Z,3.80
2018-06-16T13:38:51.192Z,5.80
2018-06-16T13:39:56.625Z,3.70
2018-06-16T13:41:02.157Z,4.47
2018-06-16T13:42:07.697Z,3.53
2018-06-16T13:43:13.161Z,3.37
2018-06-16T13:44:18.626Z,4.73
2018-06-16T13:45:24.089Z,4.37
2018-06-16T13:46:29.592Z,4.27
2018-06-16T13:47:35.101Z,3.50
2018-06-16T13:48:40.574Z,3.50
2018-06-16T13:49:45.972Z,4.30
2018-06-16T13:50:51.518Z,4.43
2018-06-16T13:51:56.919Z,3.47
2018-06-16T13:53:02.547Z,4.40
2018-06-16T13:54:08.025Z,3.57
2018-06-16T13:55:13.688Z,4.00
2018-06-16T13:56:19.283Z,3.33
2018-06-16T13:57:24.701Z,3.53
2018-06-16T13:58:30.185Z,3.13
2018-06-16T13:59:35.890Z,3.10
2018-06-16T14:00:41.515Z,3.33
2018-06-16T14:01:47.320Z,3.80
2018-06-16T14:02:53.112Z,3.97
2018-06-16T14:03:58.550Z,3.23
2018-06-16T14:05:04.082Z,3.40
2018-06-16T14:06:09.595Z,3.50
2018-06-16T14:07:15.256Z,3.73
2018-06-16T14:08:20.696Z,3.60
2018-06-16T14:09:26.275Z,3.53